Time;durP1;ratioP1;P1;durP2;ratioP2;P2;SDS_P1;SDS_P2;PMS_P1;PMS_P2;Temp;Humidity;BMP_temperature;BMP_pressure;BME280_temperature;BME280_humidity;BME280_pressure;Samples;Min_cycle;Max_cycle;Signal;HPM_P1;HPM_P2
2022/07/29 00:00:09;;;;;;;7.10;2.80;;;;;;;14.85;70.36;101197.02;1701710;83;25792;-77
2022/07/29 00:02:37;;;;;;;8.33;3.08;;;;;;;14.86;70.83;101191.12;1715554;81;26801;-75
2022/07/29 00:05:04;;;;;;;5.85;3.00;;;;;;;14.87;71.46;101193.60;1693525;83;25333;-77
2022/07/29 00:07:31;;;;;;;5.17;3.15;;;;;;;14.86;71.77;101186.56;1715627;81;26464;-77
2022/07/29 00:09:57;;;;;;;7.30;3.00;;;;;;;14.84;72.00;101190.48;1720867;81;26640;-76
2022/07/29 00:12:25;;;;;;;9.35;3.20;;;;;;;14.80;72.11;101195.42;1725510;81;25724;-77
2022/07/29 00:14:54;;;;;;;5.30;3.10;;;;;;;14.79;72.49;101196.98;1718104;81;27442;-77
2022/07/29 00:17:20;;;;;;;6.83;2.92;;;;;;;14.78;72.64;101197.49;1691521;83;25871;-76
2022/07/29 00:19:46;;;;;;;3.70;2.50;;;;;;;14.80;72.59;101196.78;1718685;82;25838;-76
2022/07/29 00:22:13;;;;;;;6.47;3.25;;;;;;;14.83;72.77;101204.98;1697192;83;26587;-77
2022/07/29 00:24:39;;;;;;;5.58;3.10;;;;;;;14.83;72.74;101203.13;1693726;83;25785;-77
2022/07/29 00:27:05;;;;;;;6.28;2.70;;;;;;;14.82;72.66;101206.84;1704387;83;27451;-78
2022/07/29 00:29:31;;;;;;;6.40;2.80;;;;;;;14.80;72.58;101206.22;1693214;83;26425;-77
2022/07/29 00:31:58;;;;;;;7.12;2.85;;;;;;;14.79;72.75;101205.08;1714531;81;25779;-78
2022/07/29 00:37:09;;;;;;;7.20;3.15;;;;;;;14.75;72.85;101207.86;1714847;81;26473;-78
2022/07/29 00:39:35;;;;;;;4.90;2.75;;;;;;;14.74;72.96;101208.88;1699071;83;28247;-76
2022/07/29 00:42:05;;;;;;;3.65;2.55;;;;;;;14.73;72.96;101216.66;1718817;81;25738;-77
2022/07/29 00:44:40;;;;;;;8.33;3.12;;;;;;;14.69;73.10;101214.34;1723055;81;26667;-78
2022/07/29 00:47:09;;;;;;;6.08;2.70;;;;;;;14.66;72.95;101204.48;1724932;81;26595;-77
2022/07/29 00:49:36;;;;;;;5.58;2.75;;;;;;;14.61;73.44;101207.77;1724476;81;26006;-77
2022/07/29 00:52:05;;;;;;;6.22;3.20;;;;;;;14.57;73.81;101202.97;1720172;81;28302;-77
2022/07/29 00:54:33;;;;;;;6.00;3.25;;;;;;;14.50;74.08;101202.09;1711421;82;25272;-77
2022/07/29 00:57:00;;;;;;;6.87;3.05;;;;;;;14.39;74.40;101205.36;1705248;82;26559;-76
2022/07/29 00:59:27;;;;;;;3.92;2.83;;;;;;;14.29;74.57;101201.64;1703891;82;26790;-77
2022/07/29 01:01:55;;;;;;;8.28;3.30;;;;;;;14.20;75.23;101202.78;1724864;81;25946;-77
2022/07/29 01:04:22;;;;;;;4.70;2.92;;;;;;;14.14;75.59;101202.73;1695394;83;28296;-77
2022/07/29 01:06:49;;;;;;;5.35;3.25;;;;;;;14.11;76.14;101205.83;1706084;81;25904;-77
2022/07/29 01:09:18;;;;;;;3.70;2.95;;;;;;;14.07;76.55;101205.91;1690642;83;26045;-77
2022/07/29 01:11:47;;;;;;;8.55;3.60;;;;;;;14.02;76.55;101201.09;1709620;82;25774;-76
2022/07/29 01:14:15;;;;;;;5.67;2.90;;;;;;;13.98;76.62;101210.59;1671048;83;25843;-77
2022/07/29 01:16:51;;;;;;;9.00;3.10;;;;;;;13.96;76.83;101211.81;1712044;82;27542;-76
2022/07/29 01:19:43;;;;;;;7.87;3.10;;;;;;;13.90;77.03;101209.36;1694355;83;25951;-77
2022/07/29 01:22:36;;;;;;;4.60;3.37;;;;;;;13.87;77.29;101211.95;1691342;83;26184;-76
2022/07/29 01:25:32;;;;;;;4.67;2.83;;;;;;;13.88;77.19;101210.91;1712033;81;26579;-76
2022/07/29 01:28:37;;;;;;;3.92;2.92;;;;;;;13.93;77.47;101217.91;1710633;82;25766;-75
2022/07/29 01:31:05;;;;;;;2.92;2.60;;;;;;;13.96;77.38;101214.50;1708682;82;27489;-78
2022/07/29 01:33:48;;;;;;;8.30;3.83;;;;;;;13.98;77.59;101215.98;1705351;82;25349;-75
2022/07/29 01:36:29;;;;;;;4.78;3.10;;;;;;;14.00;77.82;101212.58;1703753;82;26633;-76
2022/07/29 01:39:18;;;;;;;4.90;3.17;;;;;;;14.00;77.48;101210.39;1707528;82;26511;-76
2022/07/29 01:42:08;;;;;;;6.05;2.90;;;;;;;14.03;77.58;101210.02;1704299;82;25988;-78
2022/07/29 01:44:52;;;;;;;5.22;3.12;;;;;;;14.04;77.74;101204.42;1700759;82;27480;-76
2022/07/29 01:47:23;;;;;;;6.92;3.42;;;;;;;14.07;77.96;101209.94;1687462;83;25949;-76
2022/07/29 01:49:54;;;;;;;5.12;3.50;;;;;;;14.04;77.74;101208.97;1699837;83;25879;-76
2022/07/29 01:52:29;;;;;;;4.00;3.00;;;;;;;14.02;77.71;101214.56;1710106;81;26096;-76
2022/07/29 01:54:58;;;;;;;4.90;3.02;;;;;;;14.01;78.03;101212.07;1702743;81;26461;-76
2022/07/29 01:57:29;;;;;;;5.45;3.25;;;;;;;13.99;77.94;101208.71;1686033;83;28344;-75
2022/07/29 01:59:58;;;;;;;6.47;3.37;;;;;;;14.02;77.95;101206.98;1724827;81;34944;-76
2022/07/29 02:02:28;;;;;;;7.50;3.20;;;;;;;14.01;77.97;101208.84;1702914;82;25827;-77
2022/07/29 02:04:56;;;;;;;6.87;3.45;;;;;;;14.02;78.12;101212.38;1690191;83;26595;-77
2022/07/29 02:07:25;;;;;;;6.58;3.60;;;;;;;14.01;78.08;101209.38;1697550;83;25875;-77
2022/07/29 02:09:53;;;;;;;3.92;3.00;;;;;;;13.98;78.12;101209.25;1725968;80;27451;-77
2022/07/29 02:12:22;;;;;;;5.50;3.00;;;;;;;13.97;78.09;101210.26;1662215;84;25932;-76
2022/07/29 02:14:52;;;;;;;3.72;3.00;;;;;;;13.94;77.95;101202.59;1692935;83;25949;-77
2022/07/29 02:17:29;;;;;;;6.47;3.47;;;;;;;13.90;78.17;101205.32;1692973;83;26505;-76
2022/07/29 02:20:00;;;;;;;6.37;3.02;;;;;;;13.85;78.13;101207.78;1718620;81;25757;-76
2022/07/29 02:22:30;;;;;;;4.55;3.55;;;;;;;13.82;78.42;101206.30;1719245;81;27458;-76
2022/07/29 02:24:58;;;;;;;5.03;3.60;;;;;;;13.80;78.74;101204.82;1694381;83;25928;-77
2022/07/29 02:27:27;;;;;;;5.30;2.80;;;;;;;13.82;78.90;101213.03;1719489;81;25877;-78
2022/07/29 02:29:54;;;;;;;6.30;3.12;;;;;;;13.82;79.09;101209.50;1678314;83;26622;-76
2022/07/29 02:32:22;;;;;;;5.95;3.10;;;;;;;13.85;79.07;101206.43;1687289;83;26516;-77
2022/07/29 02:34:50;;;;;;;5.37;2.98;;;;;;;13.89;78.93;101205.02;1727080;81;28363;-76
2022/07/29 02:37:18;;;;;;;6.37;3.25;;;;;;;13.91;78.88;101206.49;1710507;82;26073;-76
2022/07/29 02:39:47;;;;;;;4.37;3.08;;;;;;;13.94;78.81;101208.78;1727523;81;25849;-77
2022/07/29 02:42:16;;;;;;;4.92;2.92;;;;;;;13.97;78.68;101207.56;1720392;81;26171;-77
2022/07/29 02:44:43;;;;;;;7.62;2.87;;;;;;;13.96;78.36;101208.61;1708698;81;25954;-76
2022/07/29 02:47:36;;;;;;;5.83;2.98;;;;;;;13.96;78.07;101209.12;1695454;83;27459;-75
2022/07/29 02:50:35;;;;;;;5.85;3.10;;;;;;;13.96;77.80;101207.27;1718978;81;26481;-76
2022/07/29 02:53:16;;;;;;;4.40;3.02;;;;;;;13.94;77.89;101210.66;1715020;81;26593;-75
2022/07/29 02:56:00;;;;;;;4.25;2.90;;;;;;;13.92;77.74;101213.53;1691344;83;26486;-75
2022/07/29 02:58:33;;;;;;;5.33;3.30;;;;;;;13.90;77.80;101213.40;1682455;83;26542;-77
2022/07/29 03:01:04;;;;;;;6.37;3.22;;;;;;;13.91;78.23;101212.39;1722953;81;28193;-76
2022/07/29 03:03:34;;;;;;;3.77;3.17;;;;;;;13.87;78.47;101214.64;1718537;81;25730;-76
2022/07/29 03:06:02;;;;;;;;;;;;;;;13.88;78.66;101212.25;1725401;82;25976;-75
2022/07/29 03:08:31;;;;;;;4.40;3.00;;;;;;;13.89;78.74;101215.79;1719167;81;25848;-76
2022/07/29 03:10:58;;;;;;;4.00;2.87;;;;;;;13.86;78.43;101216.16;1716440;81;25976;-76
2022/07/29 03:13:25;;;;;;;4.72;3.17;;;;;;;13.88;78.27;101212.25;1717818;81;27472;-75
2022/07/29 03:15:53;;;;;;;4.97;3.37;;;;;;;13.91;78.12;101211.88;1694917;83;26149;-78
2022/07/29 03:18:19;;;;;;;4.92;3.33;;;;;;;13.93;78.11;101211.67;1672074;84;25831;-75
2022/07/29 03:20:46;;;;;;;5.17;2.72;;;;;;;13.92;78.60;101211.38;1705463;82;25768;-76
2022/07/29 03:23:20;;;;;;;3.65;2.92;;;;;;;13.90;78.67;101210.20;1713211;82;26493;-77
2022/07/29 03:25:47;;;;;;;7.25;3.33;;;;;;;13.90;78.44;101210.70;1698590;82;27473;-76
2022/07/29 03:28:13;;;;;;;5.00;3.00;;;;;;;13.89;78.63;101211.75;1693496;83;25861;-77
2022/07/29 03:30:39;;;;;;;6.92;3.30;;;;;;;13.84;79.27;101210.98;1687034;82;25741;-77
2022/07/29 03:33:06;;;;;;;5.50;3.17;;;;;;;13.76;79.33;101215.66;1702224;82;25879;-76
2022/07/29 03:35:32;;;;;;;7.30;3.30;;;;;;;13.67;79.84;101212.77;1691139;83;25740;-77
2022/07/29 03:37:59;;;;;;;6.45;3.27;;;;;;;13.65;80.41;101216.16;1718151;81;27987;-76
2022/07/29 03:40:34;;;;;;;7.92;3.22;;;;;;;13.64;80.86;101218.55;1693242;83;26337;-78
2022/07/29 03:43:02;;;;;;;3.55;3.15;;;;;;;13.66;81.09;101220.54;1669596;84;25802;-76
2022/07/29 03:45:30;;;;;;;5.85;3.22;;;;;;;13.68;81.75;101219.83;1700783;82;25772;-76
2022/07/29 03:48:07;;;;;;;4.33;3.40;;;;;;;13.68;81.94;101214.45;1699115;82;25764;-75
2022/07/29 03:50:35;;;;;;;5.33;3.55;;;;;;;13.67;82.32;101214.95;1705540;82;28393;-76
2022/07/29 03:53:02;;;;;;;4.17;3.52;;;;;;;13.68;82.22;101216.64;1700527;82;25845;-76
2022/07/29 03:55:33;;;;;;;5.60;3.33;;;;;;;13.74;82.31;101217.20;1695355;82;25360;-76
2022/07/29 03:58:01;;;;;;;5.15;3.20;;;;;;;13.81;82.71;101223.47;1706667;82;26817;-76
2022/07/29 04:00:30;;;;;;;3.70;2.70;;;;;;;13.83;82.77;101223.30;1701757;82;26309;-76
2022/07/29 04:02:57;;;;;;;4.37;2.85;;;;;;;13.84;83.17;101224.44;1698189;82;27522;-77
2022/07/29 04:05:23;;;;;;;4.15;2.90;;;;;;;13.85;82.94;101223.94;1682090;82;26427;-78
2022/07/29 04:07:49;;;;;;;7.20;2.90;;;;;;;13.92;82.87;101222.95;1693736;82;26394;-77
2022/07/29 04:10:22;;;;;;;7.60;3.35;;;;;;;14.03;83.20;101223.48;1714379;81;26819;-76
2022/07/29 04:12:49;;;;;;;8.18;3.55;;;;;;;14.10;83.13;101221.66;1704879;82;25883;-75
2022/07/29 04:15:16;;;;;;;4.87;3.27;;;;;;;14.15;83.66;101220.06;1711885;82;27632;-77
2022/07/29 04:17:42;;;;;;;7.00;3.65;;;;;;;14.21;83.28;101215.75;1718338;81;25982;-76
2022/07/29 04:20:13;;;;;;;5.28;3.02;;;;;;;14.26;83.61;101209.27;1710134;82;25805;-76
2022/07/29 04:22:40;;;;;;;6.95;3.60;;;;;;;14.32;83.42;101221.48;1727213;81;25732;-77
2022/07/29 04:25:09;;;;;;;7.53;3.95;;;;;;;14.39;83.77;101215.59;1695249;83;25641;-77
2022/07/29 04:27:35;;;;;;;6.42;3.55;;;;;;;14.43;83.80;101215.55;1725096;81;27517;-76
2022/07/29 04:30:02;;;;;;;7.50;3.17;;;;;;;14.46;83.86;101215.14;1713428;81;25917;-77
2022/07/29 04:32:29;;;;;;;3.40;2.80;;;;;;;14.50;84.16;101215.06;1709654;82;25287;-77
2022/07/29 04:34:55;;;;;;;6.00;2.87;;;;;;;14.51;84.27;101223.98;1706677;82;25807;-77
2022/07/29 04:37:21;;;;;;;4.80;3.42;;;;;;;14.55;84.15;101226.09;1716491;81;25980;-77
2022/07/29 04:39:47;;;;;;;5.47;3.17;;;;;;;14.64;84.70;101222.73;1725662;81;28289;-77
2022/07/29 04:42:14;;;;;;;6.20;3.12;;;;;;;14.69;84.81;101226.48;1705047;82;25806;-77
2022/07/29 04:44:40;;;;;;;4.50;2.98;;;;;;;14.74;84.81;101225.05;1722985;81;25820;-77
2022/07/29 04:47:08;;;;;;;3.45;3.15;;;;;;;14.80;84.86;101224.28;1711939;82;26534;-76
2022/07/29 04:49:39;;;;;;;7.15;3.33;;;;;;;14.88;85.11;101227.66;1715541;81;25837;-77
2022/07/29 04:52:06;;;;;;;5.72;3.22;;;;;;;14.94;85.72;101230.89;1697502;83;28302;-75
2022/07/29 04:54:33;;;;;;;6.28;2.92;;;;;;;15.00;85.56;101236.84;1724503;82;25851;-77
2022/07/29 04:56:59;;;;;;;3.08;2.47;;;;;;;15.06;85.79;101237.89;1719890;81;25781;-77
2022/07/29 04:59:26;;;;;;;6.83;3.60;;;;;;;15.12;86.03;101238.46;1715393;81;26558;-77
2022/07/29 05:01:52;;;;;;;4.90;3.00;;;;;;;15.17;86.25;101239.52;1706261;82;25987;-76
2022/07/29 05:04:19;;;;;;;3.98;2.52;;;;;;;15.25;86.45;101238.48;1711908;82;27457;-76
2022/07/29 05:06:45;;;;;;;3.60;2.58;;;;;;;15.33;86.54;101243.73;1715022;82;25968;-76
2022/07/29 05:09:11;;;;;;;4.03;2.83;;;;;;;15.44;86.58;101245.86;1716288;82;26754;-77
2022/07/29 05:11:37;;;;;;;5.47;2.60;;;;;;;15.55;87.04;101240.39;1726793;81;26475;-79
2022/07/29 05:14:04;;;;;;;4.37;2.40;;;;;;;15.64;86.95;101243.22;1698110;82;25897;-77
2022/07/29 05:16:30;;;;;;;4.65;2.80;;;;;;;15.72;87.27;101242.52;1704899;83;27481;-77
2022/07/29 05:18:56;;;;;;;5.17;2.65;;;;;;;15.81;86.52;101248.56;1705622;83;25793;-76
2022/07/29 05:21:23;;;;;;;5.65;2.50;;;;;;;15.91;86.81;101236.86;1728726;81;26381;-77
2022/07/29 05:23:49;;;;;;;4.20;2.47;;;;;;;16.01;87.00;101242.68;1699292;83;25795;-77
2022/07/29 05:26:15;;;;;;;3.47;2.00;;;;;;;16.09;86.78;101237.91;1708991;83;25844;-77
2022/07/29 05:28:42;;;;;;;4.40;2.30;;;;;;;16.13;86.61;101241.02;1719263;81;28363;-77
2022/07/29 05:31:08;;;;;;;5.28;2.20;;;;;;;16.15;86.27;101242.98;1725354;81;25402;-77
2022/07/29 05:33:36;;;;;;;2.45;1.80;;;;;;;16.21;86.58;101228.12;1699598;83;26319;-78
2022/07/29 05:36:06;;;;;;;6.67;2.25;;;;;;;16.33;86.78;101230.20;1693203;83;25817;-77
2022/07/29 05:38:34;;;;;;;4.87;2.00;;;;;;;16.43;87.01;101228.74;1699470;82;25918;-77
2022/07/29 05:41:00;;;;;;;4.62;1.90;;;;;;;16.55;86.69;101240.61;1696203;83;27477;-77
2022/07/29 05:43:28;;;;;;;2.20;1.87;;;;;;;16.68;86.19;101240.59;1727400;81;25833;-75
2022/07/29 05:45:55;;;;;;;3.80;1.95;;;;;;;16.79;85.79;101241.30;1697683;83;26098;-75
2022/07/29 05:48:21;;;;;;;6.05;1.75;;;;;;;16.92;85.65;101239.92;1708155;82;26531;-76
2022/07/29 05:50:47;;;;;;;2.92;1.70;;;;;;;17.08;85.67;101237.80;1712625;81;25797;-76
2022/07/29 05:53:14;;;;;;;2.90;1.52;;;;;;;17.15;84.94;101240.77;1720418;81;28228;-75
2022/07/29 05:55:40;;;;;;;2.62;1.75;;;;;;;17.26;84.38;101240.11;1717554;81;25871;-76
2022/07/29 05:58:06;;;;;;;2.80;1.72;;;;;;;17.36;84.62;101231.53;1724471;81;25812;-76
2022/07/29 06:00:32;;;;;;;5.60;1.92;;;;;;;17.49;84.60;101234.99;1723491;81;26533;-76
2022/07/29 06:02:59;;;;;;;3.05;1.52;;;;;;;17.62;84.01;101229.53;1709277;81;25945;-77
2022/07/29 06:05:25;;;;;;;4.25;2.00;;;;;;;17.71;83.23;101226.88;1697656;83;27454;-76
2022/07/29 06:07:52;;;;;;;4.65;1.62;;;;;;;17.84;83.41;101221.06;1694734;83;26524;-76
2022/07/29 06:10:18;;;;;;;6.55;1.70;;;;;;;17.94;83.43;101220.07;1718207;81;25804;-77
2022/07/29 06:12:45;;;;;;;5.53;1.95;;;;;;;18.04;82.16;101220.41;1692720;83;25787;-76
2022/07/29 06:15:11;;;;;;;5.78;1.80;;;;;;;18.12;81.87;101226.91;1722944;81;25966;-76
2022/07/29 06:17:37;;;;;;;2.95;1.77;;;;;;;18.24;81.99;101229.22;1721702;81;27456;-76
2022/07/29 06:20:05;;;;;;;4.87;2.20;;;;;;;18.33;81.96;101219.73;1730031;81;25748;-76
2022/07/29 06:22:31;;;;;;;2.83;1.85;;;;;;;18.43;81.58;101224.15;1720826;81;25837;-76
2022/07/29 06:24:58;;;;;;;5.85;2.20;;;;;;;18.52;80.93;101226.08;1715113;81;26226;-76
2022/07/29 06:27:24;;;;;;;8.75;2.45;;;;;;;18.57;79.98;101225.70;1717243;82;25966;-76
2022/07/29 06:29:50;;;;;;;6.45;2.45;;;;;;;18.66;79.76;101231.15;1691529;83;28336;-77
2022/07/29 06:32:16;;;;;;;4.80;2.33;;;;;;;18.74;79.79;101230.02;1715465;81;25773;-77
2022/07/29 06:34:43;;;;;;;3.27;2.00;;;;;;;18.84;79.70;101227.63;1714863;82;26476;-77
2022/07/29 06:37:09;;;;;;;5.05;2.25;;;;;;;18.95;79.14;101234.48;1720132;81;26617;-77
2022/07/29 06:39:37;;;;;;;5.40;1.80;;;;;;;19.05;79.23;101231.25;1717760;81;26767;-78
2022/07/29 06:42:06;;;;;;;6.78;1.80;;;;;;;19.13;78.58;101228.22;1724742;81;27524;-76
2022/07/29 06:44:35;;;;;;;5.55;2.20;;;;;;;19.22;77.82;101232.30;1712866;81;25949;-76
2022/07/29 06:47:02;;;;;;;9.53;2.00;;;;;;;19.33;77.89;101233.41;1719648;81;25771;-77
2022/07/29 06:49:29;;;;;;;5.55;1.40;;;;;;;19.41;77.09;101229.05;1721002;81;25788;-77
2022/07/29 06:51:55;;;;;;;3.98;1.55;;;;;;;19.48;76.45;101229.25;1694577;83;25939;-78
2022/07/29 06:54:21;;;;;;;4.60;1.52;;;;;;;19.53;76.39;101225.32;1724555;81;27428;-75
2022/07/29 06:56:50;;;;;;;3.27;1.42;;;;;;;19.66;76.70;101233.30;1716033;81;25786;-78
2022/07/29 06:59:16;;;;;;;7.83;2.30;;;;;;;19.78;75.61;101233.34;1727194;81;25760;-75
2022/07/29 07:01:43;;;;;;;7.00;1.60;;;;;;;19.86;75.19;101227.05;1699685;83;25945;-75
2022/07/29 07:04:11;;;;;;;3.12;1.70;;;;;;;19.94;74.76;101220.44;1719129;81;25806;-82
2022/07/29 07:06:38;;;;;;;4.40;1.65;;;;;;;20.03;74.61;101220.41;1715521;81;27724;-80
2022/07/29 07:09:04;;;;;;;2.90;1.37;;;;;;;20.09;74.93;101219.98;1720910;80;25954;-78
2022/07/29 07:11:31;;;;;;;6.22;1.67;;;;;;;20.21;74.75;101220.33;1720911;81;25755;-79
2022/07/29 07:13:57;;;;;;;4.40;1.95;;;;;;;20.28;73.47;101221.58;1727662;81;26545;-79
2022/07/29 07:16:23;;;;;;;3.72;1.45;;;;;;;20.33;72.73;101224.44;1709809;82;26455;-78
2022/07/29 07:18:49;;;;;;;4.72;1.75;;;;;;;20.36;72.39;101220.70;1723521;81;27433;-78
2022/07/29 07:21:16;;;;;;;5.47;1.47;;;;;;;20.42;72.51;101227.91;1692761;83;25842;-79
2022/07/29 07:23:42;;;;;;;3.70;1.90;;;;;;;20.49;71.91;101210.94;1716203;81;25753;-78
2022/07/29 07:26:08;;;;;;;4.58;1.65;;;;;;;20.56;70.89;101212.19;1722565;81;26544;-81
2022/07/29 07:28:35;;;;;;;2.75;1.50;;;;;;;20.61;71.04;101214.52;1712605;82;25845;-78
2022/07/29 07:31:01;;;;;;;5.50;1.62;;;;;;;20.68;70.67;101218.44;1702383;82;27557;-78
2022/07/29 07:33:28;;;;;;;3.33;1.60;;;;;;;20.73;70.40;101217.20;1709637;82;25972;-76
2022/07/29 07:35:54;;;;;;;3.72;1.37;;;;;;;20.82;71.20;101210.34;1712248;82;25881;-79
2022/07/29 07:38:20;;;;;;;3.87;1.70;;;;;;;20.94;70.48;101221.20;1733349;81;26527;-80
2022/07/29 07:40:46;;;;;;;2.72;1.32;;;;;;;21.02;70.03;101214.04;1723860;80;25982;-79
2022/07/29 07:43:13;;;;;;;4.50;1.75;;;;;;;21.12;69.28;101216.47;1726210;81;27456;-79
2022/07/29 07:45:39;;;;;;;4.15;2.10;;;;;;;21.20;68.87;101212.52;1722737;81;25885;-81
2022/07/29 07:48:06;;;;;;;5.12;1.55;;;;;;;21.29;68.61;101214.64;1701121;83;25910;-81
2022/07/29 07:50:32;;;;;;;2.47;1.70;;;;;;;21.39;68.11;101218.09;1716078;81;26578;-79
2022/07/29 07:52:59;;;;;;;6.53;1.70;;;;;;;21.43;67.77;101224.18;1728016;81;25799;-79
2022/07/29 07:55:26;;;;;;;5.47;1.25;;;;;;;21.52;67.94;101230.07;1701826;83;28042;-79
2022/07/29 07:57:54;;;;;;;4.72;1.27;;;;;;;21.61;67.92;101225.05;1698753;83;26616;-80
2022/07/29 08:00:21;;;;;;;4.45;2.25;;;;;;;21.69;68.00;101222.77;1696750;83;25412;-80
2022/07/29 08:02:47;;;;;;;3.67;1.20;;;;;;;21.77;66.52;101214.73;1699053;83;26929;-79
2022/07/29 08:05:16;;;;;;;3.52;1.07;;;;;;;21.82;63.99;101209.36;1708478;81;25653;-79
2022/07/29 08:07:45;;;;;;;3.15;0.93;;;;;;;21.88;65.75;101209.77;1723746;81;27491;-79
2022/07/29 08:10:51;;;;;;;3.35;1.00;;;;;;;21.92;66.69;101205.50;1721947;80;25282;-79
2022/07/29 08:12:43;;;;;;;3.10;1.12;;;;;;;21.98;65.83;101204.50;1716278;81;26386;-79
2022/07/29 08:15:10;;;;;;;2.40;1.02;;;;;;;22.01;66.28;101202.63;1711079;82;26576;-80
2022/07/29 08:17:36;;;;;;;2.70;1.52;;;;;;;22.07;65.55;101207.92;1714666;82;25807;-79
2022/07/29 08:20:03;;;;;;;1.90;1.00;;;;;;;22.03;63.84;101206.77;1705143;82;27462;-79
2022/07/29 08:22:30;;;;;;;2.47;1.10;;;;;;;22.03;64.65;101205.41;1708352;82;25810;-79
2022/07/29 08:24:56;;;;;;;8.23;1.25;;;;;;;22.08;65.03;101207.39;1722127;81;25839;-79
2022/07/29 08:27:23;;;;;;;5.80;0.93;;;;;;;22.14;64.26;101213.22;1713387;81;25772;-79
2022/07/29 08:29:49;;;;;;;2.05;0.80;;;;;;;22.15;62.74;101214.33;1723682;81;25189;-80
2022/07/29 08:32:15;;;;;;;5.28;2.35;;;;;;;22.16;63.12;101217.36;1717638;81;28966;-79
2022/07/29 08:34:43;;;;;;;4.45;1.22;;;;;;;22.19;63.43;101218.24;1720187;81;25951;-78
2022/07/29 08:37:10;;;;;;;5.80;1.15;;;;;;;22.22;64.12;101215.53;1716375;81;26587;-78
2022/07/29 08:39:36;;;;;;;4.80;1.22;;;;;;;22.25;63.65;101211.78;1720824;81;25972;-79
2022/07/29 08:42:03;;;;;;;3.12;1.30;;;;;;;22.30;61.98;101215.67;1718039;81;25937;-79
2022/07/29 08:44:29;;;;;;;2.22;1.07;;;;;;;22.32;61.60;101211.62;1685632;83;27473;-79
2022/07/29 08:46:56;;;;;;;4.08;1.20;;;;;;;22.39;61.50;101213.63;1695015;83;25779;-79
2022/07/29 08:49:22;;;;;;;4.15;1.17;;;;;;;22.44;60.26;101210.14;1693352;83;26033;-78
2022/07/29 08:51:48;;;;;;;7.40;1.30;;;;;;;22.51;61.02;101210.28;1692055;82;25839;-78
2022/07/29 08:54:18;;;;;;;2.42;0.93;;;;;;;22.57;61.98;101208.44;1693149;83;26601;-79
2022/07/29 08:56:50;;;;;;;4.30;1.10;;;;;;;22.66;61.54;101209.17;1717042;81;28259;-78
2022/07/29 08:59:22;;;;;;;4.53;1.40;;;;;;;22.77;62.25;101206.87;1718801;81;25929;-78
2022/07/29 09:01:53;;;;;;;4.08;1.20;;;;;;;22.83;61.07;101211.86;1696341;83;25787;-79
2022/07/29 09:04:20;;;;;;;4.20;1.17;;;;;;;22.87;61.49;101202.07;1721078;81;25836;-78
2022/07/29 09:06:51;;;;;;;5.83;1.98;;;;;;;22.94;60.95;101203.55;1719935;81;25564;-78
2022/07/29 09:09:17;;;;;;;;;;;;;;;23.01;59.91;101195.97;1716375;81;27470;-78
2022/07/29 09:11:44;;;;;;;3.55;1.07;;;;;;;23.09;59.88;101199.34;1711169;81;25950;-79
2022/07/29 09:14:13;;;;;;;3.15;1.05;;;;;;;23.16;59.24;101195.89;1687268;83;25315;-79
2022/07/29 09:16:53;;;;;;;3.37;1.27;;;;;;;23.22;58.82;101199.80;1707595;83;26657;-79
2022/07/29 09:19:34;;;;;;;7.80;1.35;;;;;;;23.26;58.85;101199.57;1704344;82;25849;-79
2022/07/29 09:22:04;;;;;;;2.95;1.40;;;;;;;23.30;58.87;101197.97;1722106;81;27450;-79
2022/07/29 09:24:44;;;;;;;2.87;1.05;;;;;;;23.29;56.54;101203.70;1716071;82;26022;-79
2022/07/29 09:27:23;;;;;;;3.35;1.10;;;;;;;23.19;57.36;101192.09;1704785;83;25910;-79
2022/07/29 09:30:03;;;;;;;2.62;1.00;;;;;;;23.15;57.24;101186.03;1708280;82;26576;-79
2022/07/29 09:32:30;;;;;;;3.65;1.57;;;;;;;23.07;57.05;101194.68;1714713;81;25316;-79
2022/07/29 09:35:21;;;;;;;3.62;1.32;;;;;;;23.05;57.41;101184.55;1708235;82;27491;-78
2022/07/29 09:37:48;;;;;;;3.77;1.35;;;;;;;23.12;57.41;101187.92;1724245;81;25513;-78
2022/07/29 09:40:21;;;;;;;3.20;1.32;;;;;;;23.25;57.26;101191.07;1712208;81;25885;-78
2022/07/29 09:42:49;;;;;;;6.65;1.40;;;;;;;23.43;57.54;101194.88;1714142;82;25919;-79
2022/07/29 09:45:29;;;;;;;3.27;1.05;;;;;;;23.53;55.95;101194.98;1697646;83;25390;-79
2022/07/29 09:47:58;;;;;;;2.67;1.10;;;;;;;23.52;54.68;101185.67;1729383;81;28273;-79
2022/07/29 09:50:43;;;;;;;6.42;2.17;;;;;;;23.48;55.12;101177.14;1684230;83;25442;-79
2022/07/29 09:53:11;;;;;;;4.62;1.55;;;;;;;23.50;54.69;101181.00;1725130;81;26607;-78
2022/07/29 09:55:51;;;;;;;4.33;1.57;;;;;;;23.48;54.96;101173.60;1710682;82;25561;-79
2022/07/29 09:58:21;;;;;;;4.67;1.57;;;;;;;23.45;54.64;101179.58;1698836;83;26248;-79
2022/07/29 10:00:49;;;;;;;3.22;1.25;;;;;;;23.39;54.54;101177.34;1725598;81;27501;-78
2022/07/29 10:03:17;;;;;;;4.58;1.67;;;;;;;23.38;54.40;101179.77;1703995;83;25924;-78
2022/07/29 10:05:44;;;;;;;3.70;1.05;;;;;;;23.35;54.19;101175.38;1719206;81;26313;-78
2022/07/29 10:08:12;;;;;;;6.92;1.15;;;;;;;23.31;54.79;101171.47;1698660;83;25805;-78
2022/07/29 10:10:42;;;;;;;3.77;1.10;;;;;;;23.30;54.56;101172.00;1724189;81;25758;-77
2022/07/29 10:13:14;;;;;;;3.40;1.00;;;;;;;23.31;53.86;101166.80;1713340;82;28647;-79
2022/07/29 10:15:44;;;;;;;4.40;1.10;;;;;;;23.37;53.63;101163.63;1710077;81;25556;-79
2022/07/29 10:18:14;;;;;;;2.90;1.17;;;;;;;23.45;53.92;101169.47;1708467;82;25350;-79
2022/07/29 10:20:42;;;;;;;5.00;1.80;;;;;;;23.52;54.20;101175.53;1708265;82;25771;-79
2022/07/29 10:23:09;;;;;;;4.28;1.57;;;;;;;23.65;52.62;101175.69;1716578;81;26725;-79
2022/07/29 10:25:36;;;;;;;4.58;1.17;;;;;;;23.72;53.21;101164.80;1703085;83;27456;-79
2022/07/29 10:28:06;;;;;;;4.70;1.27;;;;;;;23.80;53.51;101167.62;1699677;83;26615;-79
2022/07/29 10:30:33;;;;;;;3.55;1.57;;;;;;;23.88;52.23;101163.04;1709883;81;25972;-78
2022/07/29 10:33:17;;;;;;;3.67;1.45;;;;;;;23.97;52.88;101164.75;1687589;83;25999;-79
2022/07/29 10:36:28;;;;;;;4.60;1.07;;;;;;;24.06;50.97;101164.02;1710353;81;25347;-79
2022/07/29 10:39:12;;;;;;;4.60;1.17;;;;;;;24.18;52.02;101161.12;1720804;81;27459;-80
2022/07/29 10:41:55;;;;;;;5.37;1.27;;;;;;;24.25;52.29;101167.20;1717827;82;26595;-78
2022/07/29 10:44:25;;;;;;;3.83;0.90;;;;;;;24.27;52.10;101160.34;1687713;83;25959;-79
2022/07/29 10:46:53;;;;;;;4.03;1.35;;;;;;;24.30;52.55;101150.79;1725788;81;25821;-78
2022/07/29 10:49:26;;;;;;;4.08;1.20;;;;;;;24.24;50.81;101152.68;1705259;81;25787;-79
2022/07/29 10:52:09;;;;;;;3.85;1.10;;;;;;;24.17;49.96;101147.97;1723905;81;27535;-79
2022/07/29 10:54:43;;;;;;;8.65;1.02;;;;;;;24.07;50.26;101143.80;1701167;83;26259;-79
2022/07/29 10:57:26;;;;;;;1.90;0.90;;;;;;;24.01;51.00;101137.98;1695302;83;25427;-79
2022/07/29 11:00:05;;;;;;;7.30;1.17;;;;;;;24.04;51.35;101144.30;1683993;83;26591;-79
2022/07/29 11:02:37;;;;;;;1.40;1.00;;;;;;;24.09;52.43;101145.73;1706581;82;26557;-80
2022/07/29 11:05:08;;;;;;;5.60;1.02;;;;;;;24.13;51.16;101139.17;1710417;82;27524;-79
2022/07/29 11:07:35;;;;;;;;;;;;;;;24.13;51.27;101135.89;1710127;82;25843;-80
2022/07/29 11:10:17;;;;;;;2.77;0.93;;;;;;;24.15;50.84;101128.78;1730837;81;25304;-81
2022/07/29 11:12:47;;;;;;;5.00;1.10;;;;;;;24.13;50.86;101135.06;1723952;81;26024;-79
2022/07/29 11:15:23;;;;;;;2.05;1.00;;;;;;;24.14;51.39;101131.25;1700689;83;25814;-77
2022/07/29 11:18:00;;;;;;;4.00;1.27;;;;;;;24.16;50.61;101124.44;1700149;83;26917;-79
2022/07/29 11:20:41;;;;;;;5.53;1.00;;;;;;;24.11;50.91;101128.49;1718160;81;26499;-78
2022/07/29 11:23:31;;;;;;;3.45;0.90;;;;;;;24.17;51.39;101121.13;1720040;81;25823;-79
2022/07/29 11:26:25;;;;;;;0.98;0.75;;;;;;;24.25;50.81;101119.29;1702732;83;25916;-77
2022/07/29 11:29:05;;;;;;;7.03;1.62;;;;;;;24.34;50.49;101125.89;1714505;81;25942;-78
2022/07/29 11:31:41;;;;;;;2.25;0.90;;;;;;;24.47;50.46;101115.30;1714273;81;28294;-78
2022/07/29 11:34:29;;;;;;;2.40;0.78;;;;;;;24.60;50.21;101120.01;1694797;83;25884;-78
2022/07/29 11:56:00;;;;;;;3.33;0.88;;;;;;;25.62;48.77;101110.52;1814748;77;26501;-78
2022/07/29 11:58:28;;;;;;;4.62;0.90;;;;;;;25.57;48.15;101111.87;1774743;78;25546;-77
2022/07/29 12:00:55;;;;;;;4.42;1.00;;;;;;;25.45;46.79;101115.44;1776815;78;27895;-78